sensor_id;sensor_type;location;lat;lon;timestamp;P1;durP1;ratioP1;P2;durP2;ratioP2
62572;SDS011;48626;51.678;5.806;2023-10-31T00:01:31;8.50;;;4.13;;
62572;SDS011;48626;51.678;5.806;2023-10-31T00:03:56;7.07;;;3.92;;
62572;SDS011;48626;51.678;5.806;2023-10-31T00:06:22;7.80;;;3.58;;
62572;SDS011;48626;51.678;5.806;2023-10-31T00:08:47;7.70;;;3.42;;
62572;SDS011;48626;51.678;5.806;2023-10-31T00:11:13;7.25;;;3.40;;
62572;SDS011;48626;51.678;5.806;2023-10-31T00:13:39;5.22;;;3.08;;
62572;SDS011;48626;51.678;5.806;2023-10-31T00:16:04;10.45;;;3.20;;
62572;SDS011;48626;51.678;5.806;2023-10-31T00:18:30;7.90;;;3.30;;
62572;SDS011;48626;51.678;5.806;2023-10-31T00:20:56;6.53;;;3.78;;
62572;SDS011;48626;51.678;5.806;2023-10-31T00:23:22;7.93;;;3.97;;
62572;SDS011;48626;51.678;5.806;2023-10-31T00:25:47;10.48;;;4.75;;
62572;SDS011;48626;51.678;5.806;2023-10-31T00:28:13;10.63;;;4.97;;
62572;SDS011;48626;51.678;5.806;2023-10-31T00:30:39;8.68;;;4.88;;
62572;SDS011;48626;51.678;5.806;2023-10-31T00:33:04;13.45;;;5.38;;
62572;SDS011;48626;51.678;5.806;2023-10-31T00:35:30;12.85;;;5.40;;
62572;SDS011;48626;51.678;5.806;2023-10-31T00:37:56;7.70;;;5.35;;
62572;SDS011;48626;51.678;5.806;2023-10-31T00:40:21;12.10;;;5.70;;
62572;SDS011;48626;51.678;5.806;2023-10-31T00:42:47;9.73;;;5.57;;
62572;SDS011;48626;51.678;5.806;2023-10-31T00:45:13;11.02;;;5.90;;
62572;SDS011;48626;51.678;5.806;2023-10-31T00:47:38;9.82;;;5.65;;
62572;SDS011;48626;51.678;5.806;2023-10-31T00:50:04;12.45;;;5.90;;
62572;SDS011;48626;51.678;5.806;2023-10-31T00:52:30;15.13;;;6.13;;
62572;SDS011;48626;51.678;5.806;2023-10-31T00:54:56;11.23;;;6.45;;
62572;SDS011;48626;51.678;5.806;2023-10-31T00:57:21;13.93;;;7.97;;
62572;SDS011;48626;51.678;5.806;2023-10-31T00:59:47;18.92;;;8.25;;
62572;SDS011;48626;51.678;5.806;2023-10-31T01:02:12;13.70;;;8.52;;
62572;SDS011;48626;51.678;5.806;2023-10-31T01:04:38;15.10;;;9.50;;
62572;SDS011;48626;51.678;5.806;2023-10-31T01:07:04;19.45;;;10.63;;
62572;SDS011;48626;51.678;5.806;2023-10-31T01:09:30;19.13;;;10.75;;
62572;SDS011;48626;51.678;5.806;2023-10-31T01:11:55;20.20;;;11.27;;
62572;SDS011;48626;51.678;5.806;2023-10-31T01:14:21;21.33;;;11.98;;
62572;SDS011;48626;51.678;5.806;2023-10-31T01:16:46;19.02;;;11.98;;
62572;SDS011;48626;51.678;5.806;2023-10-31T01:19:12;18.35;;;11.95;;
62572;SDS011;48626;51.678;5.806;2023-10-31T01:21:38;21.42;;;12.07;;
62572;SDS011;48626;51.678;5.806;2023-10-31T01:24:03;28.25;;;12.57;;
62572;SDS011;48626;51.678;5.806;2023-10-31T01:26:29;20.75;;;12.55;;
62572;SDS011;48626;51.678;5.806;2023-10-31T01:28:55;22.65;;;12.07;;
62572;SDS011;48626;51.678;5.806;2023-10-31T01:31:20;20.33;;;11.43;;
62572;SDS011;48626;51.678;5.806;2023-10-31T01:33:46;19.27;;;11.88;;
62572;SDS011;48626;51.678;5.806;2023-10-31T01:36:12;16.63;;;10.68;;
62572;SDS011;48626;51.678;5.806;2023-10-31T01:38:39;19.92;;;10.10;;
62572;SDS011;48626;51.678;5.806;2023-10-31T01:41:05;17.58;;;9.73;;
62572;SDS011;48626;51.678;5.806;2023-10-31T01:45:57;19.08;;;8.65;;
62572;SDS011;48626;51.678;5.806;2023-10-31T01:48:23;13.90;;;8.20;;
62572;SDS011;48626;51.678;5.806;2023-10-31T01:50:50;13.27;;;7.90;;
62572;SDS011;48626;51.678;5.806;2023-10-31T01:53:16;14.50;;;7.32;;
62572;SDS011;48626;51.678;5.806;2023-10-31T01:55:44;13.02;;;7.00;;
62572;SDS011;48626;51.678;5.806;2023-10-31T01:58:11;15.65;;;6.40;;
62572;SDS011;48626;51.678;5.806;2023-10-31T02:00:37;14.77;;;6.43;;
62572;SDS011;48626;51.678;5.806;2023-10-31T02:03:08;17.75;;;7.22;;
62572;SDS011;48626;51.678;5.806;2023-10-31T02:05:34;16.55;;;8.35;;
62572;SDS011;48626;51.678;5.806;2023-10-31T02:08:00;16.42;;;7.97;;
62572;SDS011;48626;51.678;5.806;2023-10-31T02:10:27;17.90;;;9.10;;
62572;SDS011;48626;51.678;5.806;2023-10-31T02:12:52;21.35;;;9.80;;
62572;SDS011;48626;51.678;5.806;2023-10-31T02:15:18;21.50;;;10.07;;
62572;SDS011;48626;51.678;5.806;2023-10-31T02:17:44;21.05;;;11.38;;
62572;SDS011;48626;51.678;5.806;2023-10-31T02:20:09;22.85;;;11.85;;
62572;SDS011;48626;51.678;5.806;2023-10-31T02:22:35;24.63;;;11.82;;
62572;SDS011;48626;51.678;5.806;2023-10-31T02:25:01;28.50;;;12.90;;
62572;SDS011;48626;51.678;5.806;2023-10-31T02:27:27;30.58;;;13.52;;
62572;SDS011;48626;51.678;5.806;2023-10-31T02:29:52;28.02;;;13.18;;
62572;SDS011;48626;51.678;5.806;2023-10-31T02:32:18;28.80;;;13.13;;
62572;SDS011;48626;51.678;5.806;2023-10-31T02:34:47;23.80;;;12.40;;
62572;SDS011;48626;51.678;5.806;2023-10-31T02:37:14;26.60;;;14.38;;
62572;SDS011;48626;51.678;5.806;2023-10-31T02:39:40;28.17;;;13.82;;
62572;SDS011;48626;51.678;5.806;2023-10-31T02:42:05;31.45;;;15.05;;
62572;SDS011;48626;51.678;5.806;2023-10-31T02:44:31;33.55;;;16.05;;
62572;SDS011;48626;51.678;5.806;2023-10-31T02:46:56;29.85;;;15.95;;
62572;SDS011;48626;51.678;5.806;2023-10-31T02:49:22;36.53;;;16.23;;
62572;SDS011;48626;51.678;5.806;2023-10-31T02:51:48;35.78;;;15.82;;
62572;SDS011;48626;51.678;5.806;2023-10-31T02:54:13;32.20;;;16.55;;
62572;SDS011;48626;51.678;5.806;2023-10-31T02:56:39;35.17;;;17.15;;
62572;SDS011;48626;51.678;5.806;2023-10-31T02:59:05;31.80;;;16.80;;
62572;SDS011;48626;51.678;5.806;2023-10-31T03:01:30;35.97;;;17.25;;
62572;SDS011;48626;51.678;5.806;2023-10-31T03:03:57;39.17;;;18.33;;
62572;SDS011;48626;51.678;5.806;2023-10-31T03:06:22;37.13;;;18.60;;
62572;SDS011;48626;51.678;5.806;2023-10-31T03:08:48;42.13;;;19.75;;
62572;SDS011;48626;51.678;5.806;2023-10-31T03:11:20;44.92;;;20.20;;
62572;SDS011;48626;51.678;5.806;2023-10-31T03:13:50;43.33;;;20.30;;
62572;SDS011;48626;51.678;5.806;2023-10-31T03:16:16;43.72;;;21.42;;
62572;SDS011;48626;51.678;5.806;2023-10-31T03:18:41;46.40;;;20.13;;
62572;SDS011;48626;51.678;5.806;2023-10-31T03:21:07;47.70;;;21.77;;
62572;SDS011;48626;51.678;5.806;2023-10-31T03:23:33;51.55;;;23.25;;
62572;SDS011;48626;51.678;5.806;2023-10-31T03:25:58;52.70;;;22.15;;
62572;SDS011;48626;51.678;5.806;2023-10-31T03:28:24;47.25;;;22.83;;
62572;SDS011;48626;51.678;5.806;2023-10-31T03:30:50;49.70;;;22.73;;
62572;SDS011;48626;51.678;5.806;2023-10-31T03:33:16;54.42;;;23.95;;
62572;SDS011;48626;51.678;5.806;2023-10-31T03:35:42;52.63;;;24.23;;
62572;SDS011;48626;51.678;5.806;2023-10-31T03:38:08;55.72;;;24.27;;
62572;SDS011;48626;51.678;5.806;2023-10-31T03:40:34;55.30;;;24.27;;
62572;SDS011;48626;51.678;5.806;2023-10-31T03:43:00;50.83;;;23.85;;
62572;SDS011;48626;51.678;5.806;2023-10-31T03:45:25;55.33;;;24.27;;
62572;SDS011;48626;51.678;5.806;2023-10-31T03:47:51;52.30;;;23.98;;
62572;SDS011;48626;51.678;5.806;2023-10-31T03:50:17;55.00;;;22.63;;
62572;SDS011;48626;51.678;5.806;2023-10-31T03:52:42;54.00;;;22.60;;
62572;SDS011;48626;51.678;5.806;2023-10-31T03:55:08;54.67;;;22.75;;
62572;SDS011;48626;51.678;5.806;2023-10-31T03:57:34;46.83;;;21.90;;
62572;SDS011;48626;51.678;5.806;2023-10-31T03:59:59;47.17;;;21.38;;
62572;SDS011;48626;51.678;5.806;2023-10-31T04:02:25;44.90;;;21.05;;
62572;SDS011;48626;51.678;5.806;2023-10-31T04:04:51;53.90;;;21.20;;
62572;SDS011;48626;51.678;5.806;2023-10-31T04:07:17;49.40;;;21.85;;
62572;SDS011;48626;51.678;5.806;2023-10-31T04:09:42;48.42;;;22.40;;
62572;SDS011;48626;51.678;5.806;2023-10-31T04:12:08;37.70;;;19.45;;
62572;SDS011;48626;51.678;5.806;2023-10-31T04:14:34;49.75;;;22.58;;
62572;SDS011;48626;51.678;5.806;2023-10-31T04:17:00;52.50;;;22.08;;
62572;SDS011;48626;51.678;5.806;2023-10-31T04:19:25;47.22;;;21.35;;
62572;SDS011;48626;51.678;5.806;2023-10-31T04:21:52;43.13;;;20.27;;
62572;SDS011;48626;51.678;5.806;2023-10-31T04:24:19;45.95;;;21.35;;
62572;SDS011;48626;51.678;5.806;2023-10-31T04:26:44;45.70;;;21.08;;
62572;SDS011;48626;51.678;5.806;2023-10-31T04:29:10;42.38;;;19.90;;
62572;SDS011;48626;51.678;5.806;2023-10-31T04:31:36;43.40;;;19.42;;
62572;SDS011;48626;51.678;5.806;2023-10-31T04:34:01;45.10;;;19.63;;
62572;SDS011;48626;51.678;5.806;2023-10-31T04:36:27;43.22;;;20.77;;
62572;SDS011;48626;51.678;5.806;2023-10-31T04:38:53;44.10;;;20.52;;
62572;SDS011;48626;51.678;5.806;2023-10-31T04:41:19;45.65;;;21.20;;
62572;SDS011;48626;51.678;5.806;2023-10-31T04:43:45;42.17;;;21.45;;
62572;SDS011;48626;51.678;5.806;2023-10-31T04:46:10;41.03;;;20.80;;
62572;SDS011;48626;51.678;5.806;2023-10-31T04:48:36;43.95;;;21.23;;
62572;SDS011;48626;51.678;5.806;2023-10-31T04:51:02;45.30;;;22.05;;
62572;SDS011;48626;51.678;5.806;2023-10-31T04:53:28;48.25;;;21.95;;
62572;SDS011;48626;51.678;5.806;2023-10-31T04:55:53;46.30;;;22.05;;
62572;SDS011;48626;51.678;5.806;2023-10-31T04:58:19;45.92;;;21.45;;
62572;SDS011;48626;51.678;5.806;2023-10-31T05:00:46;39.83;;;21.00;;
62572;SDS011;48626;51.678;5.806;2023-10-31T05:03:11;46.85;;;21.70;;
62572;SDS011;48626;51.678;5.806;2023-10-31T05:05:37;41.47;;;20.95;;
62572;SDS011;48626;51.678;5.806;2023-10-31T05:08:03;45.22;;;21.60;;
62572;SDS011;48626;51.678;5.806;2023-10-31T05:10:28;42.20;;;21.30;;
62572;SDS011;48626;51.678;5.806;2023-10-31T05:12:54;53.08;;;23.80;;
62572;SDS011;48626;51.678;5.806;2023-10-31T05:15:20;43.20;;;21.80;;
62572;SDS011;48626;51.678;5.806;2023-10-31T05:17:45;47.53;;;22.85;;
62572;SDS011;48626;51.678;5.806;2023-10-31T05:20:11;47.97;;;24.02;;
62572;SDS011;48626;51.678;5.806;2023-10-31T05:22:37;46.60;;;23.10;;
62572;SDS011;48626;51.678;5.806;2023-10-31T05:25:03;50.78;;;25.30;;
62572;SDS011;48626;51.678;5.806;2023-10-31T05:27:30;44.63;;;22.13;;
62572;SDS011;48626;51.678;5.806;2023-10-31T05:29:56;46.83;;;22.40;;
62572;SDS011;48626;51.678;5.806;2023-10-31T05:32:21;50.80;;;23.00;;
62572;SDS011;48626;51.678;5.806;2023-10-31T05:34:47;49.58;;;23.77;;
62572;SDS011;48626;51.678;5.806;2023-10-31T05:37:12;50.70;;;23.15;;
62572;SDS011;48626;51.678;5.806;2023-10-31T05:39:38;49.75;;;23.55;;
62572;SDS011;48626;51.678;5.806;2023-10-31T05:42:04;50.95;;;24.15;;
62572;SDS011;48626;51.678;5.806;2023-10-31T05:44:29;53.67;;;24.05;;
62572;SDS011;48626;51.678;5.806;2023-10-31T05:46:55;54.22;;;22.95;;
62572;SDS011;48626;51.678;5.806;2023-10-31T05:49:20;49.05;;;22.88;;
62572;SDS011;48626;51.678;5.806;2023-10-31T05:51:50;47.20;;;21.90;;
62572;SDS011;48626;51.678;5.806;2023-10-31T05:54:16;46.50;;;20.95;;
62572;SDS011;48626;51.678;5.806;2023-10-31T05:56:42;46.35;;;20.88;;
62572;SDS011;48626;51.678;5.806;2023-10-31T05:59:08;47.88;;;21.60;;
62572;SDS011;48626;51.678;5.806;2023-10-31T06:01:34;46.67;;;20.73;;
62572;SDS011;48626;51.678;5.806;2023-10-31T06:03:59;39.22;;;19.83;;
62572;SDS011;48626;51.678;5.806;2023-10-31T06:06:25;43.28;;;20.08;;
62572;SDS011;48626;51.678;5.806;2023-10-31T06:08:50;48.92;;;20.40;;
62572;SDS011;48626;51.678;5.806;2023-10-31T06:11:16;46.55;;;22.73;;
62572;SDS011;48626;51.678;5.806;2023-10-31T06:13:42;43.60;;;19.65;;
62572;SDS011;48626;51.678;5.806;2023-10-31T06:16:07;42.60;;;20.15;;
62572;SDS011;48626;51.678;5.806;2023-10-31T06:18:33;42.83;;;20.95;;
62572;SDS011;48626;51.678;5.806;2023-10-31T06:20:59;42.45;;;20.08;;
62572;SDS011;48626;51.678;5.806;2023-10-31T06:23:25;43.85;;;20.27;;
62572;SDS011;48626;51.678;5.806;2023-10-31T06:25:51;37.70;;;19.88;;
62572;SDS011;48626;51.678;5.806;2023-10-31T06:28:16;41.40;;;20.55;;
62572;SDS011;48626;51.678;5.806;2023-10-31T06:30:42;37.92;;;19.10;;
62572;SDS011;48626;51.678;5.806;2023-10-31T06:33:08;38.50;;;20.25;;
62572;SDS011;48626;51.678;5.806;2023-10-31T06:35:35;40.00;;;19.60;;
62572;SDS011;48626;51.678;5.806;2023-10-31T06:38:01;35.53;;;19.35;;
62572;SDS011;48626;51.678;5.806;2023-10-31T06:40:27;36.47;;;19.98;;
62572;SDS011;48626;51.678;5.806;2023-10-31T06:42:52;36.53;;;20.40;;
62572;SDS011;48626;51.678;5.806;2023-10-31T06:45:18;37.63;;;20.45;;
62572;SDS011;48626;51.678;5.806;2023-10-31T06:47:44;43.10;;;20.83;;
62572;SDS011;48626;51.678;5.806;2023-10-31T06:50:09;35.45;;;20.50;;
62572;SDS011;48626;51.678;5.806;2023-10-31T06:52:35;36.90;;;20.50;;
62572;SDS011;48626;51.678;5.806;2023-10-31T06:55:01;41.15;;;20.67;;
62572;SDS011;48626;51.678;5.806;2023-10-31T06:57:27;42.33;;;20.85;;
62572;SDS011;48626;51.678;5.806;2023-10-31T06:59:53;42.83;;;21.08;;
62572;SDS011;48626;51.678;5.806;2023-10-31T07:02:18;39.75;;;20.63;;
62572;SDS011;48626;51.678;5.806;2023-10-31T07:04:44;34.40;;;19.55;;
62572;SDS011;48626;51.678;5.806;2023-10-31T07:07:10;41.78;;;22.23;;
62572;SDS011;48626;51.678;5.806;2023-10-31T07:09:35;34.35;;;20.40;;
62572;SDS011;48626;51.678;5.806;2023-10-31T07:12:01;37.05;;;21.90;;
62572;SDS011;48626;51.678;5.806;2023-10-31T07:14:27;43.28;;;20.98;;
62572;SDS011;48626;51.678;5.806;2023-10-31T07:16:53;34.40;;;19.65;;
62572;SDS011;48626;51.678;5.806;2023-10-31T07:19:18;32.03;;;18.60;;
62572;SDS011;48626;51.678;5.806;2023-10-31T07:21:44;31.67;;;18.05;;
62572;SDS011;48626;51.678;5.806;2023-10-31T07:24:09;28.75;;;17.27;;
62572;SDS011;48626;51.678;5.806;2023-10-31T07:26:35;27.48;;;17.40;;
62572;SDS011;48626;51.678;5.806;2023-10-31T07:29:01;29.02;;;16.60;;
62572;SDS011;48626;51.678;5.806;2023-10-31T07:31:26;32.53;;;16.92;;
62572;SDS011;48626;51.678;5.806;2023-10-31T07:33:52;30.08;;;17.65;;
62572;SDS011;48626;51.678;5.806;2023-10-31T07:36:18;32.45;;;17.10;;
62572;SDS011;48626;51.678;5.806;2023-10-31T07:38:43;27.38;;;16.98;;
62572;SDS011;48626;51.678;5.806;2023-10-31T07:41:09;28.27;;;17.63;;
62572;SDS011;48626;51.678;5.806;2023-10-31T07:43:34;29.88;;;17.90;;
62572;SDS011;48626;51.678;5.806;2023-10-31T07:46:00;34.47;;;19.65;;
62572;SDS011;48626;51.678;5.806;2023-10-31T07:48:26;31.50;;;19.23;;
62572;SDS011;48626;51.678;5.806;2023-10-31T07:50:51;31.10;;;19.13;;
62572;SDS011;48626;51.678;5.806;2023-10-31T07:53:17;29.60;;;18.77;;
62572;SDS011;48626;51.678;5.806;2023-10-31T07:55:42;33.40;;;18.80;;
62572;SDS011;48626;51.678;5.806;2023-10-31T07:58:08;32.42;;;19.00;;
62572;SDS011;48626;51.678;5.806;2023-10-31T08:00:35;32.17;;;18.75;;
62572;SDS011;48626;51.678;5.806;2023-10-31T08:03:01;30.80;;;18.73;;
62572;SDS011;48626;51.678;5.806;2023-10-31T08:05:27;29.55;;;18.55;;
62572;SDS011;48626;51.678;5.806;2023-10-31T08:07:52;33.55;;;18.52;;
62572;SDS011;48626;51.678;5.806;2023-10-31T08:10:18;30.08;;;17.95;;
62572;SDS011;48626;51.678;5.806;2023-10-31T08:12:44;33.42;;;17.95;;
62572;SDS011;48626;51.678;5.806;2023-10-31T08:15:09;29.23;;;17.35;;
62572;SDS011;48626;51.678;5.806;2023-10-31T08:17:35;31.30;;;18.08;;
62572;SDS011;48626;51.678;5.806;2023-10-31T08:20:01;29.42;;;17.05;;
62572;SDS011;48626;51.678;5.806;2023-10-31T08:22:30;32.83;;;17.73;;
62572;SDS011;48626;51.678;5.806;2023-10-31T08:24:56;29.35;;;18.10;;
62572;SDS011;48626;51.678;5.806;2023-10-31T08:27:21;30.85;;;17.95;;
62572;SDS011;48626;51.678;5.806;2023-10-31T08:29:47;34.30;;;18.10;;
62572;SDS011;48626;51.678;5.806;2023-10-31T08:32:12;32.75;;;19.00;;
62572;SDS011;48626;51.678;5.806;2023-10-31T08:34:38;32.92;;;18.25;;
62572;SDS011;48626;51.678;5.806;2023-10-31T08:37:04;32.97;;;19.60;;
62572;SDS011;48626;51.678;5.806;2023-10-31T08:39:29;29.55;;;18.92;;
62572;SDS011;48626;51.678;5.806;2023-10-31T08:41:56;30.67;;;18.85;;
62572;SDS011;48626;51.678;5.806;2023-10-31T08:44:22;33.58;;;18.27;;
62572;SDS011;48626;51.678;5.806;2023-10-31T08:46:48;36.70;;;19.60;;
62572;SDS011;48626;51.678;5.806;2023-10-31T08:49:14;32.17;;;19.60;;
62572;SDS011;48626;51.678;5.806;2023-10-31T08:51:41;32.03;;;18.70;;
62572;SDS011;48626;51.678;5.806;2023-10-31T08:54:07;33.10;;;19.10;;
62572;SDS011;48626;51.678;5.806;2023-10-31T08:56:33;34.13;;;19.55;;
62572;SDS011;48626;51.678;5.806;2023-10-31T08:58:59;36.55;;;20.25;;
62572;SDS011;48626;51.678;5.806;2023-10-31T09:01:26;36.42;;;20.33;;
62572;SDS011;48626;51.678;5.806;2023-10-31T09:03:52;32.65;;;20.83;;
62572;SDS011;48626;51.678;5.806;2023-10-31T09:06:18;35.58;;;21.52;;
62572;SDS011;48626;51.678;5.806;2023-10-31T09:08:43;37.38;;;21.58;;
62572;SDS011;48626;51.678;5.806;2023-10-31T09:11:09;39.65;;;21.75;;
62572;SDS011;48626;51.678;5.806;2023-10-31T09:13:35;34.28;;;21.70;;
62572;SDS011;48626;51.678;5.806;2023-10-31T09:16:01;37.60;;;21.75;;
62572;SDS011;48626;51.678;5.806;2023-10-31T09:18:26;39.22;;;21.85;;
62572;SDS011;48626;51.678;5.806;2023-10-31T09:20:52;37.75;;;22.42;;
62572;SDS011;48626;51.678;5.806;2023-10-31T09:23:18;47.20;;;23.50;;
62572;SDS011;48626;51.678;5.806;2023-10-31T09:25:44;44.00;;;22.77;;
62572;SDS011;48626;51.678;5.806;2023-10-31T09:28:11;36.28;;;22.13;;
62572;SDS011;48626;51.678;5.806;2023-10-31T09:30:36;39.08;;;23.58;;
62572;SDS011;48626;51.678;5.806;2023-10-31T09:33:02;42.60;;;24.27;;
62572;SDS011;48626;51.678;5.806;2023-10-31T09:35:28;43.72;;;26.13;;
62572;SDS011;48626;51.678;5.806;2023-10-31T09:37:54;42.95;;;24.58;;
62572;SDS011;48626;51.678;5.806;2023-10-31T09:40:20;45.08;;;24.60;;
62572;SDS011;48626;51.678;5.806;2023-10-31T09:42:46;40.35;;;23.13;;
62572;SDS011;48626;51.678;5.806;2023-10-31T09:45:13;40.22;;;21.58;;
62572;SDS011;48626;51.678;5.806;2023-10-31T09:47:39;38.72;;;21.65;;
62572;SDS011;48626;51.678;5.806;2023-10-31T09:50:06;37.90;;;20.67;;
62572;SDS011;48626;51.678;5.806;2023-10-31T09:52:35;37.90;;;20.95;;
62572;SDS011;48626;51.678;5.806;2023-10-31T09:55:01;42.95;;;20.25;;
62572;SDS011;48626;51.678;5.806;2023-10-31T09:57:28;35.17;;;20.55;;
62572;SDS011;48626;51.678;5.806;2023-10-31T09:59:54;40.03;;;20.23;;
62572;SDS011;48626;51.678;5.806;2023-10-31T10:02:19;40.20;;;20.40;;
62572;SDS011;48626;51.678;5.806;2023-10-31T10:04:45;39.92;;;20.15;;
62572;SDS011;48626;51.678;5.806;2023-10-31T10:07:15;42.00;;;20.42;;
62572;SDS011;48626;51.678;5.806;2023-10-31T10:09:43;45.90;;;20.65;;
62572;SDS011;48626;51.678;5.806;2023-10-31T10:12:11;41.67;;;19.85;;
62572;SDS011;48626;51.678;5.806;2023-10-31T10:14:38;35.97;;;18.95;;
62572;SDS011;48626;51.678;5.806;2023-10-31T10:17:14;36.25;;;19.08;;
62572;SDS011;48626;51.678;5.806;2023-10-31T10:19:41;44.00;;;18.20;;
62572;SDS011;48626;51.678;5.806;2023-10-31T10:22:07;42.20;;;18.63;;
62572;SDS011;48626;51.678;5.806;2023-10-31T10:24:32;36.33;;;17.92;;
62572;SDS011;48626;51.678;5.806;2023-10-31T10:26:58;36.60;;;18.10;;
62572;SDS011;48626;51.678;5.806;2023-10-31T10:29:24;39.47;;;17.58;;
62572;SDS011;48626;51.678;5.806;2023-10-31T10:31:51;29.90;;;16.52;;
62572;SDS011;48626;51.678;5.806;2023-10-31T10:34:17;33.83;;;16.25;;
62572;SDS011;48626;51.678;5.806;2023-10-31T10:36:46;36.88;;;16.63;;
62572;SDS011;48626;51.678;5.806;2023-10-31T10:39:18;44.20;;;17.75;;
62572;SDS011;48626;51.678;5.806;2023-10-31T10:41:54;39.95;;;17.17;;
62572;SDS011;48626;51.678;5.806;2023-10-31T10:44:29;38.35;;;16.20;;
62572;SDS011;48626;51.678;5.806;2023-10-31T10:47:09;35.90;;;16.77;;
62572;SDS011;48626;51.678;5.806;2023-10-31T10:49:37;39.78;;;17.73;;
62572;SDS011;48626;51.678;5.806;2023-10-31T10:52:13;33.40;;;17.42;;
62572;SDS011;48626;51.678;5.806;2023-10-31T10:54:52;33.87;;;18.57;;
62572;SDS011;48626;51.678;5.806;2023-10-31T10:57:32;46.97;;;18.70;;
62572;SDS011;48626;51.678;5.806;2023-10-31T11:00:06;34.95;;;17.08;;
62572;SDS011;48626;51.678;5.806;2023-10-31T11:02:34;34.63;;;17.83;;
62572;SDS011;48626;51.678;5.806;2023-10-31T11:05:02;32.42;;;17.27;;
62572;SDS011;48626;51.678;5.806;2023-10-31T11:07:32;38.38;;;17.75;;
62572;SDS011;48626;51.678;5.806;2023-10-31T11:10:00;34.53;;;17.23;;
62572;SDS011;48626;51.678;5.806;2023-10-31T11:12:29;41.03;;;18.60;;
62572;SDS011;48626;51.678;5.806;2023-10-31T11:14:57;39.90;;;18.10;;
62572;SDS011;48626;51.678;5.806;2023-10-31T11:17:26;34.13;;;16.40;;
62572;SDS011;48626;51.678;5.806;2023-10-31T11:19:55;34.63;;;17.05;;
62572;SDS011;48626;51.678;5.806;2023-10-31T11:22:21;30.02;;;15.85;;
62572;SDS011;48626;51.678;5.806;2023-10-31T11:24:50;41.45;;;16.95;;
62572;SDS011;48626;51.678;5.806;2023-10-31T11:27:16;35.55;;;17.02;;
62572;SDS011;48626;51.678;5.806;2023-10-31T11:29:43;30.25;;;16.15;;
62572;SDS011;48626;51.678;5.806;2023-10-31T11:32:09;33.85;;;15.68;;
62572;SDS011;48626;51.678;5.806;2023-10-31T11:34:39;30.13;;;15.48;;
62572;SDS011;48626;51.678;5.806;2023-10-31T11:40:24;28.38;;;14.95;;
62572;SDS011;48626;51.678;5.806;2023-10-31T11:42:47;25.95;;;13.38;;
62572;SDS011;48626;51.678;5.806;2023-10-31T11:45:28;29.23;;;13.98;;
62572;SDS011;48626;51.678;5.806;2023-10-31T11:47:56;25.70;;;13.18;;
62572;SDS011;48626;51.678;5.806;2023-10-31T11:50:22;24.90;;;13.25;;
62572;SDS011;48626;51.678;5.806;2023-10-31T11:53:08;25.15;;;13.23;;
62572;SDS011;48626;51.678;5.806;2023-10-31T11:55:44;23.95;;;12.85;;
62572;SDS011;48626;51.678;5.806;2023-10-31T11:58:23;23.60;;;13.05;;
62572;SDS011;48626;51.678;5.806;2023-10-31T12:00:51;23.20;;;12.10;;
62572;SDS011;48626;51.678;5.806;2023-10-31T12:03:18;33.28;;;13.20;;
62572;SDS011;48626;51.678;5.806;2023-10-31T12:05:52;24.60;;;13.45;;
62572;SDS011;48626;51.678;5.806;2023-10-31T12:08:28;23.88;;;12.70;;
62572;SDS011;48626;51.678;5.806;2023-10-31T12:11:02;26.08;;;13.27;;
62572;SDS011;48626;51.678;5.806;2023-10-31T12:13:32;30.42;;;13.35;;
62572;SDS011;48626;51.678;5.806;2023-10-31T12:15:59;27.27;;;13.27;;
62572;SDS011;48626;51.678;5.806;2023-10-31T12:18:26;22.95;;;13.27;;
62572;SDS011;48626;51.678;5.806;2023-10-31T12:20:55;26.63;;;14.00;;
62572;SDS011;48626;51.678;5.806;2023-10-31T12:23:21;28.10;;;13.88;;
62572;SDS011;48626;51.678;5.806;2023-10-31T12:25:50;23.58;;;13.00;;
62572;SDS011;48626;51.678;5.806;2023-10-31T12:28:25;26.02;;;12.90;;
62572;SDS011;48626;51.678;5.806;2023-10-31T12:30:53;27.95;;;12.55;;
62572;SDS011;48626;51.678;5.806;2023-10-31T12:33:20;20.00;;;11.80;;
62572;SDS011;48626;51.678;5.806;2023-10-31T12:35:49;21.17;;;12.93;;
62572;SDS011;48626;51.678;5.806;2023-10-31T12:38:22;24.55;;;12.63;;
62572;SDS011;48626;51.678;5.806;2023-10-31T12:40:48;25.65;;;12.75;;
62572;SDS011;48626;51.678;5.806;2023-10-31T12:43:15;26.52;;;12.90;;
62572;SDS011;48626;51.678;5.806;2023-10-31T12:45:41;23.27;;;12.65;;
62572;SDS011;48626;51.678;5.806;2023-10-31T12:48:07;24.80;;;12.40;;
62572;SDS011;48626;51.678;5.806;2023-10-31T12:50:35;27.25;;;12.52;;
62572;SDS011;48626;51.678;5.806;2023-10-31T12:53:03;23.23;;;12.32;;
62572;SDS011;48626;51.678;5.806;2023-10-31T12:55:29;25.15;;;12.10;;
62572;SDS011;48626;51.678;5.806;2023-10-31T12:57:57;21.85;;;10.98;;
62572;SDS011;48626;51.678;5.806;2023-10-31T13:00:31;23.17;;;11.52;;
62572;SDS011;48626;51.678;5.806;2023-10-31T13:02:59;17.73;;;10.25;;
62572;SDS011;48626;51.678;5.806;2023-10-31T13:05:29;23.77;;;9.63;;
62572;SDS011;48626;51.678;5.806;2023-10-31T13:07:55;18.58;;;9.30;;
62572;SDS011;48626;51.678;5.806;2023-10-31T13:10:22;19.25;;;9.23;;
62572;SDS011;48626;51.678;5.806;2023-10-31T13:12:49;18.13;;;7.78;;
62572;SDS011;48626;51.678;5.806;2023-10-31T13:15:16;12.50;;;7.75;;
62572;SDS011;48626;51.678;5.806;2023-10-31T13:17:45;13.07;;;8.30;;
62572;SDS011;48626;51.678;5.806;2023-10-31T13:20:13;15.82;;;8.15;;
62572;SDS011;48626;51.678;5.806;2023-10-31T13:22:40;14.20;;;7.00;;
62572;SDS011;48626;51.678;5.806;2023-10-31T13:25:07;11.50;;;7.57;;
62572;SDS011;48626;51.678;5.806;2023-10-31T13:30:04;12.88;;;7.22;;
62572;SDS011;48626;51.678;5.806;2023-10-31T13:32:30;10.63;;;5.97;;
62572;SDS011;48626;51.678;5.806;2023-10-31T13:34:56;10.45;;;5.75;;
62572;SDS011;48626;51.678;5.806;2023-10-31T13:37:22;14.65;;;5.90;;
62572;SDS011;48626;51.678;5.806;2023-10-31T13:39:48;14.25;;;6.00;;
62572;SDS011;48626;51.678;5.806;2023-10-31T13:42:14;13.50;;;5.60;;
62572;SDS011;48626;51.678;5.806;2023-10-31T13:44:40;10.75;;;5.70;;
62572;SDS011;48626;51.678;5.806;2023-10-31T13:47:06;8.30;;;5.32;;
62572;SDS011;48626;51.678;5.806;2023-10-31T13:49:32;10.73;;;4.82;;
62572;SDS011;48626;51.678;5.806;2023-10-31T13:51:57;8.18;;;4.57;;
62572;SDS011;48626;51.678;5.806;2023-10-31T13:54:23;9.80;;;4.55;;
62572;SDS011;48626;51.678;5.806;2023-10-31T13:56:49;10.52;;;4.20;;
62572;SDS011;48626;51.678;5.806;2023-10-31T13:59:14;9.30;;;4.13;;
62572;SDS011;48626;51.678;5.806;2023-10-31T14:01:40;7.40;;;4.38;;
62572;SDS011;48626;51.678;5.806;2023-10-31T14:04:07;11.32;;;4.80;;
62572;SDS011;48626;51.678;5.806;2023-10-31T14:06:33;12.48;;;5.00;;
62572;SDS011;48626;51.678;5.806;2023-10-31T14:08:59;11.10;;;5.85;;
62572;SDS011;48626;51.678;5.806;2023-10-31T14:13:55;15.13;;;5.75;;
62572;SDS011;48626;51.678;5.806;2023-10-31T14:16:25;14.43;;;6.15;;
62572;SDS011;48626;51.678;5.806;2023-10-31T14:18:50;10.82;;;5.53;;
62572;SDS011;48626;51.678;5.806;2023-10-31T14:21:16;11.63;;;5.20;;
62572;SDS011;48626;51.678;5.806;2023-10-31T14:23:41;8.57;;;4.78;;
62572;SDS011;48626;51.678;5.806;2023-10-31T14:26:07;13.10;;;5.43;;
62572;SDS011;48626;51.678;5.806;2023-10-31T14:28:33;10.35;;;4.85;;
62572;SDS011;48626;51.678;5.806;2023-10-31T14:30:58;8.82;;;4.60;;
62572;SDS011;48626;51.678;5.806;2023-10-31T14:33:24;9.40;;;4.35;;